Time;durP1;ratioP1;P1;durP2;ratioP2;P2;SDS_P1;SDS_P2;PMS_P1;PMS_P2;Temp;Humidity;BMP_temperature;BMP_pressure;BME280_temperature;BME280_humidity;BME280_pressure;Samples;Min_cycle;Max_cycle;Signal;HPM_P1;HPM_P2
2021/12/20 00:01:20;;;;;;;25.65;3.00;;;5.80;91.30;;;;;;6156556;23;20029;-77
2021/12/20 00:03:47;;;;;;;27.13;2.80;;;5.80;90.70;;;;;;6157457;23;20026;-78
2021/12/20 00:06:13;;;;;;;28.27;3.05;;;5.80;90.90;;;;;;6156612;23;20364;-79
2021/12/20 00:08:40;;;;;;;22.38;2.60;;;5.70;90.90;;;;;;6158537;23;20100;-78
2021/12/20 00:11:07;;;;;;;18.17;2.40;;;5.70;90.70;;;;;;6132394;23;20106;-78
2021/12/20 00:13:34;;;;;;;22.48;3.72;;;5.70;91.10;;;;;;6157824;23;20477;-78
2021/12/20 00:16:01;;;;;;;20.02;2.70;;;5.70;91.50;;;;;;6157352;23;20022;-79
2021/12/20 00:18:29;;;;;;;15.10;2.53;;;5.70;91.60;;;;;;6157251;23;20022;-79
2021/12/20 00:20:56;;;;;;;20.13;2.88;;;5.70;91.30;;;;;;6154677;23;20025;-79
2021/12/20 00:23:23;;;;;;;9.75;2.00;;;5.60;91.70;;;;;;6157262;23;20492;-79
2021/12/20 00:25:50;;;;;;;23.10;2.70;;;5.60;91.80;;;;;;6157190;23;20097;-79
2021/12/20 00:28:18;;;;;;;21.63;2.67;;;5.60;92.00;;;;;;6155709;23;20149;-79
2021/12/20 00:30:55;;;;;;;20.08;3.10;;;5.60;92.00;;;;;;6122648;23;20023;-79
2021/12/20 00:33:22;;;;;;;21.50;2.63;;;5.60;92.10;;;;;;6125500;23;20426;-79
2021/12/20 00:35:49;;;;;;;17.35;2.38;;;5.60;92.00;;;;;;6127654;23;20807;-79
2021/12/20 00:41:01;;;;;;;22.90;3.50;;;5.60;91.90;;;;;;6128029;23;20022;-80
2021/12/20 00:43:27;;;;;;;25.92;3.17;;;5.50;91.40;;;;;;6125393;23;20049;-79
2021/12/20 00:45:54;;;;;;;22.88;3.08;;;5.50;91.20;;;;;;6127560;23;20114;-79
2021/12/20 00:48:21;;;;;;;38.53;3.47;;;5.50;91.30;;;;;;6126451;23;20804;-80
2021/12/20 00:50:48;;;;;;;18.80;3.00;;;5.50;91.10;;;;;;6126087;23;20057;-80
2021/12/20 00:53:15;;;;;;;32.40;2.92;;;5.50;91.50;;;;;;6124258;23;20033;-79
2021/12/20 00:55:42;;;;;;;23.45;3.05;;;5.40;91.20;;;;;;6126003;23;20632;-79
2021/12/20 00:58:08;;;;;;;24.10;3.38;;;5.40;90.80;;;;;;6126332;23;20101;-79
2021/12/20 01:00:38;;;;;;;24.70;3.83;;;5.40;90.40;;;;;;6127030;23;20027;-79
2021/12/20 01:03:07;;;;;;;22.67;3.00;;;5.40;90.30;;;;;;6126427;23;20102;-79
2021/12/20 01:05:35;;;;;;;29.75;3.15;;;5.40;90.30;;;;;;6123964;23;20047;-79
2021/12/20 01:08:06;;;;;;;17.85;2.58;;;5.40;90.30;;;;;;6124455;23;20495;-79
2021/12/20 01:10:35;;;;;;;31.77;3.22;;;5.40;90.50;;;;;;6124281;23;20034;-80
2021/12/20 01:13:03;;;;;;;29.95;3.55;;;5.40;90.60;;;;;;6124784;23;20027;-79
2021/12/20 01:15:40;;;;;;;18.45;2.55;;;5.40;90.80;;;;;;6124160;23;20026;-79
2021/12/20 01:18:09;;;;;;;17.55;2.20;;;5.40;91.00;;;;;;6123610;23;20153;-80
2021/12/20 01:20:36;;;;;;;25.40;3.25;;;5.40;91.00;;;;;;6124901;23;20026;-79
2021/12/20 01:23:04;;;;;;;25.50;3.15;;;5.40;91.30;;;;;;6125055;23;20022;-79
2021/12/20 01:25:31;;;;;;;22.75;2.60;;;5.40;91.40;;;;;;6125245;23;20032;-79
2021/12/20 01:27:58;;;;;;;21.77;3.13;;;5.30;91.50;;;;;;6125180;23;20026;-79
2021/12/20 01:30:26;;;;;;;34.22;4.18;;;5.30;91.60;;;;;;6126775;23;20030;-79
2021/12/20 01:32:53;;;;;;;18.08;2.65;;;5.30;91.30;;;;;;6154830;23;20765;-79
2021/12/20 01:35:24;;;;;;;27.25;3.30;;;5.30;91.40;;;;;;6154465;23;20022;-79
2021/12/20 01:37:53;;;;;;;27.63;3.53;;;5.30;91.30;;;;;;6154473;23;20029;-79
2021/12/20 01:40:21;;;;;;;34.55;3.35;;;5.30;91.10;;;;;;6154563;23;20848;-80
2021/12/20 01:42:49;;;;;;;32.70;3.78;;;5.30;91.20;;;;;;6154502;23;20765;-79
2021/12/20 01:45:19;;;;;;;24.45;2.80;;;5.30;91.00;;;;;;6154752;23;20081;-79
2021/12/20 01:47:50;;;;;;;44.03;3.58;;;5.30;91.10;;;;;;6154657;23;20569;-79
2021/12/20 01:50:40;;;;;;;33.05;3.65;;;5.30;90.80;;;;;;6155159;23;20022;-78
2021/12/20 01:53:08;;;;;;;23.98;2.38;;;5.30;91.20;;;;;;6127468;23;20026;-79
2021/12/20 01:55:35;;;;;;;19.73;2.78;;;5.30;90.90;;;;;;6155671;23;20789;-79
2021/12/20 01:58:02;;;;;;;22.00;2.65;;;5.30;90.50;;;;;;6155648;23;20106;-79
2021/12/20 02:00:30;;;;;;;19.55;2.58;;;5.30;90.60;;;;;;6153953;23;20018;-79
2021/12/20 02:03:02;;;;;;;25.35;3.05;;;5.30;91.00;;;;;;6154459;23;20026;-79
2021/12/20 02:05:50;;;;;;;23.35;2.80;;;5.30;91.00;;;;;;6152538;23;20033;-79
2021/12/20 02:08:25;;;;;;;26.20;3.03;;;5.30;91.10;;;;;;6153724;23;20136;-79
2021/12/20 02:10:55;;;;;;;22.38;2.85;;;5.30;91.10;;;;;;6153781;23;20097;-79
2021/12/20 02:13:24;;;;;;;16.88;2.45;;;5.30;91.30;;;;;;6152611;23;20030;-79
2021/12/20 02:15:51;;;;;;;28.88;3.03;;;5.30;91.30;;;;;;6152805;23;20033;-80
2021/12/20 02:18:18;;;;;;;30.33;3.25;;;5.20;91.00;;;;;;6153985;23;20369;-79
2021/12/20 02:20:45;;;;;;;22.27;3.00;;;5.20;91.20;;;;;;6128435;23;20049;-79
2021/12/20 02:23:12;;;;;;;17.30;2.80;;;5.20;91.30;;;;;;6153989;23;20794;-79
2021/12/20 02:25:39;;;;;;;24.83;3.00;;;5.20;91.40;;;;;;6127365;23;20032;-79
2021/12/20 02:28:16;;;;;;;23.42;2.60;;;5.20;91.10;;;;;;6154390;23;20784;-79
2021/12/20 02:38:56;;;;;;;29.77;4.05;;;5.20;91.20;;;;;;6153872;23;20506;-79
2021/12/20 02:41:31;;;;;;;17.77;2.72;;;5.20;91.20;;;;;;6153588;23;20022;-79
2021/12/20 02:44:06;;;;;;;27.58;3.47;;;5.20;91.20;;;;;;6153638;23;20034;-79
2021/12/20 02:49:06;;;;;;;25.77;2.70;;;5.10;89.60;;;;;;6153655;23;20036;-79
2021/12/20 02:51:33;;;;;;;21.70;2.70;;;5.20;88.90;;;;;;6152181;23;20030;-79
2021/12/20 02:54:04;;;;;;;23.45;2.70;;;5.20;89.40;;;;;;6153754;23;20029;-79
2021/12/20 02:56:31;;;;;;;24.45;3.92;;;5.20;89.60;;;;;;6126988;23;20030;-80
2021/12/20 02:58:58;;;;;;;25.67;3.22;;;5.10;88.50;;;;;;6153384;23;20033;-78
2021/12/20 03:01:26;;;;;;;27.52;3.47;;;5.10;88.50;;;;;;6153136;23;20026;-80
2021/12/20 03:03:55;;;;;;;22.10;3.65;;;5.10;88.60;;;;;;6152990;23;20686;-80
2021/12/20 03:06:34;;;;;;;27.70;2.90;;;5.10;88.50;;;;;;6127003;23;20022;-79
2021/12/20 03:09:03;;;;;;;24.40;2.65;;;5.10;88.40;;;;;;6153726;23;20857;-79
2021/12/20 03:11:30;;;;;;;24.85;3.05;;;5.10;87.80;;;;;;6151338;23;20022;-79
2021/12/20 03:14:25;;;;;;;28.65;3.47;;;5.10;87.90;;;;;;6153270;23;20061;-79
2021/12/20 03:16:51;;;;;;;27.73;3.30;;;5.10;88.10;;;;;;6152118;23;20788;-79
2021/12/20 03:19:17;;;;;;;24.75;4.47;;;5.10;88.30;;;;;;6128481;23;20022;-79
2021/12/20 03:21:44;;;;;;;28.67;3.08;;;5.00;88.50;;;;;;6154861;23;20030;-79
2021/12/20 03:24:13;;;;;;;25.65;2.78;;;5.00;88.70;;;;;;6128919;23;20105;-79
2021/12/20 03:26:40;;;;;;;27.45;3.95;;;5.00;89.10;;;;;;6154331;23;20022;-79
2021/12/20 03:29:07;;;;;;;20.77;3.80;;;5.00;89.30;;;;;;6154590;23;20097;-79
2021/12/20 03:31:33;;;;;;;25.00;2.63;;;5.00;89.00;;;;;;6127952;23;20026;-80
2021/12/20 03:34:01;;;;;;;19.25;2.92;;;5.00;89.30;;;;;;6154795;23;20034;-79
2021/12/20 03:36:27;;;;;;;21.40;2.92;;;5.00;89.40;;;;;;6154557;23;20022;-79
2021/12/20 03:38:54;;;;;;;20.33;2.33;;;5.00;89.60;;;;;;6154889;23;20463;-79
2021/12/20 03:41:21;;;;;;;23.23;2.55;;;5.00;89.70;;;;;;6153671;23;20486;-79
2021/12/20 03:43:50;;;;;;;23.02;2.33;;;5.00;90.00;;;;;;6154370;23;20465;-79
2021/12/20 03:46:17;;;;;;;22.35;2.97;;;5.00;89.90;;;;;;6153927;23;20028;-79
2021/12/20 03:48:44;;;;;;;36.42;4.05;;;5.00;90.00;;;;;;6154567;23;20018;-79
2021/12/20 03:51:14;;;;;;;21.25;2.95;;;5.00;89.90;;;;;;6154365;23;20030;-79
2021/12/20 03:53:41;;;;;;;25.50;2.90;;;5.00;90.10;;;;;;6154897;23;20034;-79
2021/12/20 03:56:08;;;;;;;19.58;2.63;;;4.90;90.20;;;;;;6154020;23;20458;-79
2021/12/20 03:58:35;;;;;;;24.02;2.58;;;4.90;90.20;;;;;;6154258;23;20022;-79
2021/12/20 04:01:08;;;;;;;22.17;3.03;;;4.90;89.90;;;;;;6154322;23;20025;-79
2021/12/20 04:03:36;;;;;;;28.15;3.10;;;4.90;89.00;;;;;;6153226;23;20481;-79
2021/12/20 04:06:05;;;;;;;20.33;3.08;;;4.90;89.10;;;;;;6153985;23;20029;-79
2021/12/20 04:08:33;;;;;;;25.83;2.95;;;4.90;89.40;;;;;;6154693;23;20153;-79
2021/12/20 04:11:00;;;;;;;34.90;3.80;;;4.90;88.90;;;;;;6152760;23;20855;-79
2021/12/20 04:13:27;;;;;;;23.17;3.10;;;4.90;89.40;;;;;;6154032;23;20486;-79
2021/12/20 04:15:54;;;;;;;18.00;2.58;;;4.90;88.70;;;;;;6154302;23;20021;-79
2021/12/20 04:18:25;;;;;;;26.27;2.95;;;4.90;89.20;;;;;;6155183;23;20026;-79
2021/12/20 04:20:52;;;;;;;20.63;2.85;;;4.90;89.00;;;;;;6129093;23;20030;-79
2021/12/20 04:23:22;;;;;;;26.60;3.40;;;4.90;89.20;;;;;;6154064;23;20101;-79
2021/12/20 04:25:48;;;;;;;25.38;3.53;;;4.90;88.50;;;;;;6128689;23;20471;-79
2021/12/20 04:28:15;;;;;;;25.42;3.33;;;4.90;88.20;;;;;;6127921;23;20022;-79
2021/12/20 04:30:42;;;;;;;26.50;2.95;;;4.90;88.50;;;;;;6153617;23;20080;-79
2021/12/20 04:33:09;;;;;;;23.35;3.17;;;4.90;88.40;;;;;;6154757;23;20473;-79
2021/12/20 04:35:36;;;;;;;28.95;3.20;;;4.90;87.80;;;;;;6151545;23;20355;-79
2021/12/20 04:38:03;;;;;;;26.23;3.10;;;4.80;88.20;;;;;;6127066;23;20033;-79
2021/12/20 04:40:30;;;;;;;31.95;3.05;;;4.80;88.00;;;;;;6153695;23;20028;-79
2021/12/20 04:43:01;;;;;;;19.00;3.28;;;4.90;87.70;;;;;;6153948;23;20561;-79
2021/12/20 04:45:31;;;;;;;20.73;2.97;;;4.90;88.00;;;;;;6154868;23;20025;-79
2021/12/20 04:47:59;;;;;;;30.30;3.10;;;4.90;88.20;;;;;;6154493;23;20021;-79
2021/12/20 04:50:28;;;;;;;22.77;2.90;;;4.90;87.60;;;;;;6128174;23;20101;-79
2021/12/20 04:52:58;;;;;;;13.48;2.55;;;4.90;88.30;;;;;;6154435;23;20054;-79
2021/12/20 04:55:26;;;;;;;24.75;3.35;;;4.90;88.30;;;;;;6153959;23;20022;-79
2021/12/20 04:57:53;;;;;;;30.67;3.40;;;4.80;88.70;;;;;;6153709;23;20022;-79
2021/12/20 05:00:27;;;;;;;27.85;4.55;;;4.80;88.90;;;;;;6154008;23;20026;-79
2021/12/20 05:02:53;;;;;;;20.60;2.72;;;4.80;88.60;;;;;;6152451;23;20038;-79
2021/12/20 05:05:23;;;;;;;27.20;3.95;;;4.90;88.70;;;;;;6153506;23;20387;-81
2021/12/20 05:07:50;;;;;;;21.83;3.08;;;4.90;88.20;;;;;;6152097;23;20018;-79
2021/12/20 05:10:26;;;;;;;31.38;4.03;;;4.90;88.30;;;;;;6154024;23;20109;-79
2021/12/20 05:12:58;;;;;;;24.92;2.75;;;4.80;88.70;;;;;;6154370;23;20110;-79
2021/12/20 05:15:25;;;;;;;20.92;3.53;;;4.90;88.70;;;;;;6154203;23;20022;-79
2021/12/20 05:17:52;;;;;;;27.10;2.72;;;4.90;88.50;;;;;;6153925;23;20603;-79
2021/12/20 05:20:30;;;;;;;26.65;2.92;;;4.90;88.20;;;;;;6153638;23;20126;-79
2021/12/20 05:22:57;;;;;;;32.80;3.80;;;4.80;88.30;;;;;;6152853;23;20026;-79
2021/12/20 05:25:25;;;;;;;20.52;2.97;;;4.80;88.30;;;;;;6154332;23;20778;-79
2021/12/20 05:27:51;;;;;;;13.70;2.72;;;4.80;88.10;;;;;;6154373;23;20056;-79
2021/12/20 05:30:19;;;;;;;20.67;2.90;;;4.80;88.60;;;;;;6154080;23;20018;-79
2021/12/20 05:32:47;;;;;;;23.83;2.88;;;4.80;88.70;;;;;;6154432;23;20687;-79
2021/12/20 05:35:16;;;;;;;24.13;2.75;;;4.80;88.80;;;;;;6155208;23;20869;-79
2021/12/20 05:37:43;;;;;;;18.75;2.28;;;4.80;87.20;;;;;;6156589;23;20025;-79
2021/12/20 05:40:11;;;;;;;16.60;2.30;;;4.80;85.80;;;;;;6155749;23;20052;-78
2021/12/20 05:42:38;;;;;;;19.10;2.63;;;4.90;85.20;;;;;;6156693;23;20030;-79
2021/12/20 05:45:06;;;;;;;16.45;2.17;;;4.90;84.60;;;;;;6155437;23;20022;-79
2021/12/20 05:47:33;;;;;;;23.85;3.25;;;4.90;84.00;;;;;;6153734;23;20026;-79
2021/12/20 05:50:00;;;;;;;22.17;2.42;;;5.00;83.20;;;;;;6153621;23;20030;-78
2021/12/20 05:52:27;;;;;;;21.13;3.25;;;5.00;82.50;;;;;;6154843;23;20030;-79
2021/12/20 05:54:53;;;;;;;21.85;3.45;;;5.00;83.20;;;;;;6155474;23;20802;-79
2021/12/20 05:57:20;;;;;;;16.15;3.13;;;5.00;83.80;;;;;;6128164;23;20674;-79
2021/12/20 05:59:47;;;;;;;18.98;3.13;;;4.90;84.50;;;;;;6155277;23;20458;-78
2021/12/20 06:02:13;;;;;;;20.73;3.20;;;4.90;85.20;;;;;;6154757;23;20105;-78
2021/12/20 06:04:40;;;;;;;22.65;2.92;;;4.90;84.90;;;;;;6156136;23;20105;-79
2021/12/20 06:07:08;;;;;;;19.20;2.80;;;4.80;85.00;;;;;;6158083;23;20029;-78
2021/12/20 06:09:35;;;;;;;24.63;3.78;;;4.80;84.20;;;;;;6127799;23;20419;-78
2021/12/20 06:12:02;;;;;;;18.55;2.92;;;4.80;84.80;;;;;;6156171;23;20489;-78
2021/12/20 06:14:29;;;;;;;17.80;2.53;;;4.80;85.10;;;;;;6128501;23;20026;-79
2021/12/20 06:16:58;;;;;;;20.17;2.40;;;4.80;85.50;;;;;;6153742;23;20101;-79
2021/12/20 06:19:26;;;;;;;15.77;2.55;;;4.70;85.60;;;;;;6154877;23;20785;-78
2021/12/20 06:21:54;;;;;;;20.45;3.10;;;4.70;85.60;;;;;;6154299;23;20748;-78
2021/12/20 06:24:21;;;;;;;22.52;3.10;;;4.80;84.50;;;;;;6151951;23;20089;-79
2021/12/20 06:26:50;;;;;;;19.38;2.88;;;4.80;85.00;;;;;;6153182;23;20021;-79
2021/12/20 06:29:19;;;;;;;17.88;2.50;;;4.80;85.50;;;;;;6152938;23;20026;-79
2021/12/20 06:31:46;;;;;;;16.10;2.63;;;4.80;85.60;;;;;;6152931;23;20032;-79
2021/12/20 06:34:13;;;;;;;16.33;2.58;;;4.80;85.70;;;;;;6152718;23;20562;-79
2021/12/20 06:36:40;;;;;;;32.00;2.88;;;4.80;85.80;;;;;;6153465;23;20025;-79
2021/12/20 06:39:06;;;;;;;17.10;2.60;;;4.80;85.50;;;;;;6152782;23;20056;-80
2021/12/20 06:41:33;;;;;;;21.58;2.58;;;4.80;85.50;;;;;;6152773;23;20100;-77
2021/12/20 06:44:02;;;;;;;21.35;3.15;;;4.70;85.60;;;;;;6153358;23;20046;-77
2021/12/20 06:46:30;;;;;;;18.08;2.25;;;4.70;85.60;;;;;;6127699;23;20018;-77
2021/12/20 06:48:56;;;;;;;21.20;2.47;;;4.70;85.70;;;;;;6153357;23;20717;-77
2021/12/20 06:51:24;;;;;;;14.85;1.92;;;4.80;85.60;;;;;;6152689;23;20057;-80
2021/12/20 06:53:55;;;;;;;15.75;2.00;;;4.70;85.60;;;;;;6153258;23;20025;-78
2021/12/20 06:56:22;;;;;;;18.30;2.53;;;4.70;85.70;;;;;;6155081;23;20124;-78
2021/12/20 06:58:52;;;;;;;21.67;2.28;;;4.80;85.70;;;;;;6154542;23;20018;-80
2021/12/20 07:01:20;;;;;;;12.60;2.15;;;4.70;86.00;;;;;;6126385;23;20478;-77
2021/12/20 07:03:50;;;;;;;12.55;1.80;;;4.70;85.80;;;;;;6154441;23;20030;-77
2021/12/20 07:06:18;;;;;;;17.27;2.05;;;4.70;85.80;;;;;;6155169;23;20032;-77
2021/12/20 07:08:44;;;;;;;14.02;2.08;;;4.80;86.20;;;;;;6129572;23;20018;-77
2021/12/20 07:11:11;;;;;;;9.85;2.10;;;4.70;86.60;;;;;;6154846;23;20104;-77
2021/12/20 07:13:39;;;;;;;13.82;2.20;;;4.70;86.80;;;;;;6154927;23;20782;-77
2021/12/20 07:16:07;;;;;;;16.90;2.78;;;4.70;87.00;;;;;;6128703;23;20045;-77
2021/12/20 07:18:35;;;;;;;12.00;1.90;;;4.70;87.00;;;;;;6153694;23;20026;-77
2021/12/20 07:21:05;;;;;;;14.50;2.22;;;4.70;87.00;;;;;;6155222;23;20105;-80
2021/12/20 07:23:34;;;;;;;14.75;2.20;;;4.70;87.20;;;;;;6154238;23;20073;-78
2021/12/20 07:26:03;;;;;;;7.60;1.65;;;4.70;87.30;;;;;;6153144;23;20029;-79
2021/12/20 07:28:30;;;;;;;15.77;2.10;;;4.70;87.30;;;;;;6154604;23;20032;-80
2021/12/20 07:30:56;;;;;;;14.90;2.25;;;4.60;87.30;;;;;;6153648;23;20069;-77
2021/12/20 07:33:26;;;;;;;10.02;1.63;;;4.70;87.50;;;;;;6154200;23;20892;-79
2021/12/20 07:35:53;;;;;;;20.02;2.88;;;4.70;87.60;;;;;;6153254;23;20045;-78
2021/12/20 07:38:22;;;;;;;16.20;2.00;;;4.60;87.70;;;;;;6154787;23;20666;-78
2021/12/20 07:40:50;;;;;;;13.40;2.30;;;4.70;87.90;;;;;;6154477;23;20486;-79
2021/12/20 07:43:19;;;;;;;10.57;2.58;;;4.70;88.10;;;;;;6153993;23;20025;-79
2021/12/20 07:45:47;;;;;;;13.80;2.40;;;4.60;87.80;;;;;;6152712;23;20018;-79
2021/12/20 07:48:18;;;;;;;9.68;1.83;;;4.60;88.20;;;;;;6153653;23;20056;-79
2021/12/20 07:50:48;;;;;;;14.10;2.50;;;4.60;88.20;;;;;;6154212;23;20355;-79
2021/12/20 07:53:15;;;;;;;18.13;4.85;;;4.60;88.10;;;;;;6153346;23;20656;-79
2021/12/20 07:55:42;;;;;;;23.95;6.75;;;4.50;88.20;;;;;;6154798;23;20514;-79
2021/12/20 07:58:09;;;;;;;17.67;3.92;;;4.50;88.20;;;;;;6154789;23;20565;-79
2021/12/20 08:00:38;;;;;;;21.38;4.45;;;4.40;88.40;;;;;;6128390;23;20034;-79
2021/12/20 08:03:05;;;;;;;12.52;2.88;;;4.40;88.40;;;;;;6153443;23;20033;-79
2021/12/20 08:05:32;;;;;;;11.95;2.55;;;4.40;88.40;;;;;;6154391;23;20076;-79
2021/12/20 08:07:59;;;;;;;20.88;3.20;;;4.40;88.40;;;;;;6153617;23;20073;-80
2021/12/20 08:10:30;;;;;;;11.85;2.42;;;4.40;88.70;;;;;;6154015;23;20300;-80
2021/12/20 08:12:56;;;;;;;20.58;2.55;;;4.40;88.50;;;;;;6153066;23;20983;-79
2021/12/20 08:15:26;;;;;;;7.70;2.33;;;4.40;88.40;;;;;;6153321;23;20046;-80
2021/12/20 08:17:53;;;;;;;16.20;2.80;;;4.40;88.60;;;;;;6154122;23;20049;-79
2021/12/20 08:20:21;;;;;;;10.13;2.40;;;4.40;88.70;;;;;;6152019;23;20079;-80
2021/12/20 08:22:48;;;;;;;21.38;2.97;;;4.50;88.50;;;;;;6154165;23;20100;-80
2021/12/20 08:25:18;;;;;;;19.25;2.40;;;4.50;88.60;;;;;;6155755;23;20049;-79
2021/12/20 08:27:46;;;;;;;11.98;2.00;;;4.50;88.70;;;;;;6131689;23;20037;-80
2021/12/20 08:30:16;;;;;;;10.05;2.03;;;4.50;89.00;;;;;;6158668;23;20030;-79
2021/12/20 08:32:43;;;;;;;10.70;1.60;;;4.60;89.00;;;;;;6157737;23;20030;-79
2021/12/20 08:35:11;;;;;;;14.20;2.05;;;4.60;89.10;;;;;;6154124;23;20826;-79
2021/12/20 08:37:39;;;;;;;15.63;1.98;;;4.60;89.50;;;;;;6153432;23;20022;-80
2021/12/20 08:40:11;;;;;;;13.57;1.90;;;4.60;89.30;;;;;;6154198;23;20026;-80
2021/12/20 08:42:46;;;;;;;18.13;2.25;;;4.70;89.30;;;;;;6128027;23;20029;-80
2021/12/20 08:45:17;;;;;;;23.27;3.60;;;4.70;89.20;;;;;;6154771;23;20077;-80
2021/12/20 08:47:49;;;;;;;9.82;1.85;;;4.70;89.10;;;;;;6153889;23;20033;-79
2021/12/20 08:50:21;;;;;;;17.48;2.47;;;4.70;89.50;;;;;;6154292;23;20026;-80
2021/12/20 08:52:52;;;;;;;18.20;2.58;;;4.80;89.40;;;;;;6151845;23;20029;-79
2021/12/20 08:55:22;;;;;;;16.50;2.60;;;4.80;89.20;;;;;;6153094;23;20030;-80
2021/12/20 08:57:51;;;;;;;18.60;2.17;;;4.80;89.20;;;;;;6153753;23;20093;-81
2021/12/20 09:00:38;;;;;;;11.52;2.15;;;4.80;89.10;;;;;;6152275;23;20025;-79
2021/12/20 09:03:06;;;;;;;14.48;2.20;;;4.90;89.20;;;;;;6147253;23;20030;-81
2021/12/20 09:05:34;;;;;;;20.38;2.60;;;4.90;88.90;;;;;;6153436;23;20022;-80
2021/12/20 09:08:02;;;;;;;19.10;2.25;;;4.90;88.90;;;;;;6153886;23;20021;-79
2021/12/20 09:10:32;;;;;;;17.23;2.70;;;5.00;88.70;;;;;;6153442;23;20109;-79
2021/12/20 09:13:01;;;;;;;15.25;2.17;;;5.00;88.90;;;;;;6141187;23;20049;-80
2021/12/20 09:15:29;;;;;;;25.02;2.42;;;5.10;88.90;;;;;;6152219;23;20391;-79
2021/12/20 09:17:56;;;;;;;12.63;2.22;;;5.10;88.70;;;;;;6153200;23;20098;-80
2021/12/20 09:20:31;;;;;;;12.60;2.55;;;5.10;88.70;;;;;;6152783;23;20085;-80
2021/12/20 09:23:07;;;;;;;17.45;3.63;;;5.20;88.80;;;;;;6152837;23;20590;-80
2021/12/20 09:25:36;;;;;;;17.38;2.90;;;5.20;88.50;;;;;;6152949;23;20073;-80
2021/12/20 09:28:12;;;;;;;18.80;3.28;;;5.30;88.20;;;;;;6125920;23;20026;-80
2021/12/20 09:30:42;;;;;;;21.83;3.03;;;5.30;89.00;;;;;;6127880;23;20493;-80
2021/12/20 09:33:15;;;;;;;24.00;3.42;;;5.40;89.10;;;;;;6125582;23;20033;-80
2021/12/20 09:35:45;;;;;;;19.80;3.03;;;5.50;88.70;;;;;;6154150;23;20022;-79
2021/12/20 09:38:17;;;;;;;16.73;3.60;;;5.50;88.50;;;;;;6126757;23;20469;-80
2021/12/20 09:41:13;;;;;;;22.15;3.15;;;5.50;87.90;;;;;;6150874;23;20619;-80
2021/12/20 09:43:47;;;;;;;13.57;2.70;;;5.60;86.20;;;;;;6157436;23;20026;-80
2021/12/20 09:46:26;;;;;;;22.15;3.15;;;5.60;86.80;;;;;;6154526;23;20077;-80
2021/12/20 09:48:59;;;;;;;18.30;2.40;;;5.60;87.40;;;;;;6126758;23;20029;-78
2021/12/20 09:51:26;;;;;;;13.95;2.60;;;5.70;87.10;;;;;;6123817;23;20051;-80
2021/12/20 09:54:05;;;;;;;13.70;2.67;;;5.70;86.60;;;;;;6097340;23;20094;-79
2021/12/20 09:57:10;;;;;;;14.90;2.75;;;5.80;86.80;;;;;;6099423;23;20026;-78
2021/12/20 09:59:38;;;;;;;15.25;2.33;;;5.90;85.20;;;;;;6123547;23;20022;-78
2021/12/20 10:02:09;;;;;;;14.65;2.33;;;5.80;83.00;;;;;;6124433;23;20086;-78
2021/12/20 10:04:36;;;;;;;11.90;2.35;;;5.80;84.20;;;;;;6122459;23;20026;-79
2021/12/20 10:07:04;;;;;;;13.73;2.45;;;5.80;84.70;;;;;;6123175;23;20055;-77
2021/12/20 10:09:33;;;;;;;16.90;3.72;;;5.80;84.00;;;;;;6122323;23;20137;-79
2021/12/20 10:12:21;;;;;;;16.92;2.92;;;5.90;84.50;;;;;;6124463;23;20035;-79
2021/12/20 10:15:03;;;;;;;15.50;2.92;;;5.90;84.50;;;;;;6127203;23;20023;-79
2021/12/20 10:17:38;;;;;;;12.82;2.45;;;5.90;84.00;;;;;;6123944;23;20037;-78
2021/12/20 10:20:19;;;;;;;17.52;2.75;;;6.00;83.90;;;;;;6123434;23;20069;-79
2021/12/20 10:22:51;;;;;;;13.90;2.72;;;6.00;83.70;;;;;;6098196;23;20031;-79
2021/12/20 10:25:27;;;;;;;11.52;2.05;;;6.00;83.70;;;;;;6123009;23;20770;-79
2021/12/20 10:28:02;;;;;;;11.18;1.90;;;6.10;80.50;;;;;;6123261;23;20455;-79
2021/12/20 10:30:32;;;;;;;15.45;2.33;;;6.10;81.60;;;;;;6097651;23;20360;-79
2021/12/20 10:32:59;;;;;;;15.73;2.80;;;6.10;81.50;;;;;;6122329;23;20077;-79
2021/12/20 10:35:27;;;;;;;15.18;2.63;;;6.10;80.80;;;;;;6097220;23;21081;-79
2021/12/20 10:37:56;;;;;;;13.93;2.10;;;6.10;80.20;;;;;;6096021;23;20531;-79
2021/12/20 10:40:25;;;;;;;14.27;2.28;;;6.10;81.10;;;;;;6122428;23;20061;-79
2021/12/20 10:42:53;;;;;;;13.15;2.70;;;6.20;81.00;;;;;;6122902;23;20109;-79
2021/12/20 10:45:21;;;;;;;11.95;1.88;;;6.20;78.70;;;;;;6122090;23;20343;-79
2021/12/20 10:47:53;;;;;;;10.20;1.77;;;6.20;80.30;;;;;;6123064;23;20033;-80
2021/12/20 10:50:27;;;;;;;15.75;2.20;;;6.20;77.50;;;;;;6123162;23;20034;-79
2021/12/20 10:53:10;;;;;;;12.57;2.10;;;6.20;77.40;;;;;;6122714;23;20614;-79
2021/12/20 10:55:40;;;;;;;11.07;1.95;;;6.20;77.60;;;;;;6121927;23;20527;-80
2021/12/20 10:58:31;;;;;;;17.98;2.50;;;6.20;77.90;;;;;;6123239;23;20093;-80
2021/12/20 11:01:05;;;;;;;20.85;2.72;;;6.20;75.60;;;;;;6120033;23;20445;-79
2021/12/20 11:03:39;;;;;;;12.95;2.90;;;6.20;77.60;;;;;;6094835;23;20022;-79
2021/12/20 11:09:05;;;;;;;17.33;3.47;;;6.30;78.70;;;;;;6119711;23;20033;-79
2021/12/20 11:11:40;;;;;;;13.50;2.45;;;6.40;76.70;;;;;;6123907;23;20097;-79
2021/12/20 11:14:09;;;;;;;10.57;2.72;;;6.40;74.90;;;;;;6124039;23;20451;-79
2021/12/20 11:16:45;;;;;;;14.50;3.20;;;6.40;75.10;;;;;;6127083;23;20798;-81
2021/12/20 11:19:16;;;;;;;18.27;2.80;;;6.40;76.90;;;;;;6125598;23;20086;-79
2021/12/20 11:21:50;;;;;;;19.67;3.67;;;6.40;76.20;;;;;;6098646;23;20027;-78
2021/12/20 11:24:30;;;;;;;14.07;2.33;;;6.40;75.70;;;;;;6122773;23;20075;-81
2021/12/20 11:27:14;;;;;;;12.98;1.90;;;6.40;75.10;;;;;;6125390;23;20029;-80
2021/12/20 11:29:45;;;;;;;12.75;2.35;;;6.50;74.90;;;;;;6125855;23;20877;-80
2021/12/20 11:32:23;;;;;;;11.45;2.00;;;6.50;75.40;;;;;;6095867;23;20046;-80
2021/12/20 11:34:51;;;;;;;12.23;2.10;;;6.50;75.10;;;;;;6126380;23;20065;-81
2021/12/20 11:37:29;;;;;;;11.63;2.38;;;6.60;75.80;;;;;;6122961;23;20394;-78
2021/12/20 11:40:02;;;;;;;16.92;2.05;;;6.70;75.80;;;;;;6101564;23;20031;-79
2021/12/20 11:42:32;;;;;;;12.27;2.33;;;6.80;75.40;;;;;;6124586;23;20030;-79
2021/12/20 11:45:02;;;;;;;13.98;2.15;;;6.90;74.60;;;;;;6124901;23;20056;-79
2021/12/20 11:51:01;;;;;;;13.90;2.03;;;6.80;74.60;;;;;;6126046;23;20739;-79
2021/12/20 11:53:42;;;;;;;11.82;1.98;;;6.80;74.90;;;;;;6129781;23;20064;-79
2021/12/20 11:56:10;;;;;;;13.50;2.28;;;6.80;74.60;;;;;;6129009;23;20038;-78
2021/12/20 11:58:47;;;;;;;16.02;1.98;;;6.80;74.70;;;;;;6126289;23;20074;-79
2021/12/20 12:01:22;;;;;;;15.77;3.25;;;6.70;73.50;;;;;;6127703;23;20049;-79
2021/12/20 12:03:54;;;;;;;17.05;2.63;;;6.70;72.50;;;;;;6099719;23;20036;-79
2021/12/20 12:06:29;;;;;;;16.85;2.00;;;6.70;73.10;;;;;;6128494;23;20099;-80
2021/12/20 12:08:59;;;;;;;13.40;1.95;;;6.80;71.40;;;;;;6127857;23;20026;-80
2021/12/20 12:11:49;;;;;;;15.52;2.55;;;6.90;70.90;;;;;;6105514;23;20030;-81
2021/12/20 12:14:32;;;;;;;15.70;2.88;;;7.00;72.40;;;;;;6119440;23;20611;-79
2021/12/20 12:17:08;;;;;;;10.98;2.10;;;7.00;72.20;;;;;;6093430;23;20034;-80
2021/12/20 12:19:40;;;;;;;11.38;2.45;;;6.90;71.20;;;;;;6122702;23;20026;-82
2021/12/20 12:22:26;;;;;;;15.57;2.53;;;6.80;71.50;;;;;;6127436;23;20814;-80
2021/12/20 12:24:56;;;;;;;11.90;1.90;;;6.70;71.10;;;;;;6128381;23;20027;-80
2021/12/20 12:27:25;;;;;;;10.60;2.17;;;6.70;71.40;;;;;;6127916;23;20604;-81
2021/12/20 12:30:11;;;;;;;13.05;2.58;;;6.60;71.00;;;;;;6127000;23;20027;-80
2021/12/20 12:32:58;;;;;;;14.35;2.50;;;6.60;71.40;;;;;;6126402;23;20086;-80
2021/12/20 12:35:42;;;;;;;16.38;2.55;;;6.50;71.20;;;;;;6125656;23;20023;-80
2021/12/20 12:38:44;;;;;;;13.95;1.98;;;6.50;70.30;;;;;;6126827;23;20530;-79
2021/12/20 12:41:32;;;;;;;13.82;2.47;;;6.50;71.00;;;;;;6102348;23;20018;-79
2021/12/20 12:44:01;;;;;;;13.48;2.13;;;6.50;71.80;;;;;;6101710;23;20467;-79
2021/12/20 12:46:43;;;;;;;13.48;2.13;;;6.50;71.50;;;;;;6126174;23;20027;-80
2021/12/20 12:49:27;;;;;;;17.00;2.10;;;6.50;66.00;;;;;;6129188;23;20114;-80
2021/12/20 12:51:57;;;;;;;14.10;2.08;;;6.50;67.40;;;;;;6127585;23;20110;-82
2021/12/20 12:54:57;;;;;;;16.60;2.53;;;6.60;65.10;;;;;;6125614;23;20363;-80
2021/12/20 12:57:31;;;;;;;15.35;2.13;;;6.70;68.30;;;;;;6126130;23;20430;-81
2021/12/20 13:00:08;;;;;;;16.88;2.50;;;6.80;68.60;;;;;;6125788;23;20037;-77
2021/12/20 13:02:53;;;;;;;11.43;2.20;;;6.90;65.80;;;;;;6125131;23;20026;-79
2021/12/20 13:05:49;;;;;;;12.55;2.92;;;6.90;67.90;;;;;;6099043;23;20031;-79
2021/12/20 13:08:28;;;;;;;12.88;2.13;;;7.00;69.80;;;;;;6096538;23;20055;-80
2021/12/20 13:11:18;;;;;;;14.25;2.63;;;7.00;69.30;;;;;;6096077;23;20102;-79
2021/12/20 13:13:54;;;;;;;11.93;1.80;;;6.90;68.70;;;;;;6097592;23;20021;-79
2021/12/20 13:16:26;;;;;;;15.07;2.35;;;6.80;68.70;;;;;;6097622;23;20027;-78
2021/12/20 13:19:01;;;;;;;12.65;2.20;;;6.70;68.20;;;;;;6096646;23;20030;-79
2021/12/20 13:21:49;;;;;;;13.50;2.15;;;6.60;65.10;;;;;;6096974;23;20062;-78
2021/12/20 13:24:29;;;;;;;12.02;2.28;;;6.60;67.50;;;;;;6100945;23;20023;-78
2021/12/20 13:27:20;;;;;;;17.65;2.17;;;6.50;68.10;;;;;;6098894;23;20022;-79